SHT18P EGLL-EGPD
Flight info
| Callsign | SHT18P |
|---|---|
| Flight time | 1h 0m |
| Altitude | 38000 |
| Route | ULTI1J ULTIB T420 AKUPA UY250 KEFTE DCT AGPED DCT MADAD P18 EPCAN |
| Aircraft | A320/M-VGDW/C |
Departure
| Time | 2026-05-05 20:20 |
|---|---|
| Airport | London Heathrow Airport (EGLL) |
Arrival
| Time | 2026-05-05 21:21 |
|---|---|
| Airport | Aberdeen International Airport (EGPD) |
| Time | Latitude | Longitude | Altitude | Speed | Heading |
|---|---|---|---|---|---|
| 2026-05-05 19:58 | 51.47126 | -0.48617 | 78 ft | 0 kts | 270° |
| 2026-05-05 20:10 | 51.47126 | -0.48616 | 78 ft | 0 kts | 270° |
| 2026-05-05 20:10 | 51.47126 | -0.48614 | 78 ft | 0 kts | 272° |
| 2026-05-05 20:11 | 51.47129 | -0.48601 | 78 ft | 2 kts | 239° |
| 2026-05-05 20:11 | 51.47134 | -0.48583 | 78 ft | 2 kts | 271° |
| 2026-05-05 20:11 | 51.47133 | -0.48559 | 78 ft | 2 kts | 269° |
| 2026-05-05 20:11 | 51.47133 | -0.48534 | 78 ft | 2 kts | 270° |
| 2026-05-05 20:12 | 51.47133 | -0.48511 | 78 ft | 1 kts | 270° |
| 2026-05-05 20:12 | 51.47134 | -0.48495 | 78 ft | 2 kts | 249° |
| 2026-05-05 20:12 | 51.47143 | -0.48477 | 78 ft | 2 kts | 208° |
| 2026-05-05 20:12 | 51.47153 | -0.48472 | 78 ft | 0 kts | 184° |
| 2026-05-05 20:13 | 51.47160 | -0.48472 | 78 ft | 0 kts | 179° |
| 2026-05-05 20:14 | 51.47159 | -0.48472 | 78 ft | 1 kts | 179° |
| 2026-05-05 20:15 | 51.47112 | -0.48471 | 78 ft | 8 kts | 179° |
| 2026-05-05 20:15 | 51.47048 | -0.48471 | 78 ft | 9 kts | 180° |
| 2026-05-05 20:15 | 51.46981 | -0.48471 | 78 ft | 9 kts | 180° |
| 2026-05-05 20:15 | 51.46915 | -0.48471 | 79 ft | 9 kts | 180° |
| 2026-05-05 20:16 | 51.46836 | -0.48470 | 79 ft | 13 kts | 180° |
| 2026-05-05 20:16 | 51.46732 | -0.48469 | 78 ft | 15 kts | 180° |
| 2026-05-05 20:16 | 51.46644 | -0.48468 | 78 ft | 9 kts | 180° |
| 2026-05-05 20:16 | 51.46595 | -0.48467 | 78 ft | 4 kts | 180° |
| 2026-05-05 20:17 | 51.46589 | -0.48467 | 78 ft | 0 kts | 180° |
| 2026-05-05 20:17 | 51.46581 | -0.48467 | 78 ft | 4 kts | 180° |
| 2026-05-05 20:17 | 51.46512 | -0.48465 | 78 ft | 14 kts | 172° |
| 2026-05-05 20:17 | 51.46478 | -0.48400 | 78 ft | 3 kts | 89° |
| 2026-05-05 20:18 | 51.46478 | -0.48394 | 78 ft | 0 kts | 89° |
| 2026-05-05 20:19 | 51.46481 | -0.48169 | 78 ft | 58 kts | 91° |
| 2026-05-05 20:19 | 51.46484 | -0.47068 | 78 ft | 137 kts | 90° |
| 2026-05-05 20:20 | 51.46486 | -0.45312 | 477 ft | 168 kts | 87° |
| 2026-05-05 20:20 | 51.46492 | -0.43429 | 1252 ft | 176 kts | 86° |
| 2026-05-05 20:20 | 51.46667 | -0.41396 | 1849 ft | 192 kts | 62° |
| 2026-05-05 20:20 | 51.47472 | -0.39594 | 2386 ft | 215 kts | 48° |
| 2026-05-05 20:21 | 51.48497 | -0.37711 | 3029 ft | 235 kts | 45° |
| 2026-05-05 20:21 | 51.49642 | -0.35700 | 3652 ft | 255 kts | 45° |
| 2026-05-05 20:21 | 51.50834 | -0.33579 | 4507 ft | 263 kts | 45° |
| 2026-05-05 20:21 | 51.52021 | -0.31332 | 5325 ft | 267 kts | 55° |
| 2026-05-05 20:22 | 51.52717 | -0.28527 | 5842 ft | 276 kts | 69° |
| 2026-05-05 20:22 | 51.53309 | -0.25568 | 6018 ft | 277 kts | 68° |
| 2026-05-05 20:22 | 51.53917 | -0.22617 | 6042 ft | 278 kts | 68° |
| 2026-05-05 20:22 | 51.54689 | -0.19800 | 6042 ft | 271 kts | 49° |
| 2026-05-05 20:23 | 51.56086 | -0.17897 | 6049 ft | 261 kts | 21° |
| 2026-05-05 20:23 | 51.57818 | -0.17270 | 6050 ft | 255 kts | 356° |
| 2026-05-05 20:23 | 51.59523 | -0.17958 | 6049 ft | 252 kts | 331° |
| 2026-05-05 20:23 | 51.60846 | -0.19777 | 6049 ft | 254 kts | 307° |
| 2026-05-05 20:24 | 51.61729 | -0.22217 | 6050 ft | 254 kts | 301° |
| 2026-05-05 20:24 | 51.62717 | -0.24569 | 6218 ft | 254 kts | 317° |
| 2026-05-05 20:24 | 51.64187 | -0.26170 | 6737 ft | 256 kts | 329° |
| 2026-05-05 20:24 | 51.65706 | -0.27617 | 7517 ft | 261 kts | 327° |
| 2026-05-05 20:25 | 51.67269 | -0.29117 | 8403 ft | 264 kts | 327° |
| 2026-05-05 20:25 | 51.68835 | -0.30623 | 9238 ft | 268 kts | 326° |
| 2026-05-05 20:25 | 51.70446 | -0.32173 | 10044 ft | 274 kts | 325° |
| 2026-05-05 20:25 | 51.72113 | -0.33784 | 10611 ft | 288 kts | 324° |
| 2026-05-05 20:26 | 51.73886 | -0.35502 | 10987 ft | 308 kts | 324° |
| 2026-05-05 20:26 | 51.75753 | -0.37307 | 11582 ft | 318 kts | 324° |
| 2026-05-05 20:26 | 51.77673 | -0.39162 | 12255 ft | 325 kts | 324° |
| 2026-05-05 20:26 | 51.79591 | -0.41015 | 12993 ft | 328 kts | 324° |
| 2026-05-05 20:27 | 51.81543 | -0.42902 | 13767 ft | 330 kts | 323° |
| 2026-05-05 20:27 | 51.83514 | -0.44811 | 14510 ft | 331 kts | 323° |
| 2026-05-05 20:27 | 51.85491 | -0.46729 | 15217 ft | 334 kts | 322° |
| 2026-05-05 20:27 | 51.87471 | -0.48652 | 15895 ft | 336 kts | 322° |
| 2026-05-05 20:28 | 51.89483 | -0.50609 | 16561 ft | 338 kts | 321° |
| 2026-05-05 20:28 | 51.91506 | -0.52579 | 17207 ft | 341 kts | 321° |
| 2026-05-05 20:28 | 51.93534 | -0.54556 | 17831 ft | 343 kts | 321° |
| 2026-05-05 20:28 | 51.95574 | -0.56547 | 18438 ft | 345 kts | 321° |
| 2026-05-05 20:29 | 51.97616 | -0.58541 | 19026 ft | 348 kts | 320° |
| 2026-05-05 20:29 | 51.99706 | -0.60586 | 19605 ft | 350 kts | 320° |
| 2026-05-05 20:29 | 52.01802 | -0.62638 | 20166 ft | 352 kts | 320° |
| 2026-05-05 20:29 | 52.03904 | -0.64698 | 20711 ft | 354 kts | 319° |
| 2026-05-05 20:30 | 52.05995 | -0.66750 | 21268 ft | 356 kts | 319° |
| 2026-05-05 20:30 | 52.08115 | -0.68831 | 21809 ft | 358 kts | 318° |
| 2026-05-05 20:30 | 52.10262 | -0.70944 | 22331 ft | 360 kts | 318° |
| 2026-05-05 20:30 | 52.12385 | -0.73035 | 22821 ft | 362 kts | 317° |
| 2026-05-05 20:31 | 52.14534 | -0.75154 | 23305 ft | 364 kts | 317° |
| 2026-05-05 20:31 | 52.16703 | -0.77295 | 23780 ft | 366 kts | 317° |
| 2026-05-05 20:31 | 52.18890 | -0.79456 | 24248 ft | 368 kts | 317° |
| 2026-05-05 20:31 | 52.21056 | -0.81599 | 24698 ft | 370 kts | 317° |
| 2026-05-05 20:32 | 52.23248 | -0.83769 | 25139 ft | 372 kts | 317° |
| 2026-05-05 20:32 | 52.25472 | -0.85974 | 25575 ft | 373 kts | 316° |
| 2026-05-05 20:32 | 52.27687 | -0.88172 | 25997 ft | 375 kts | 316° |
| 2026-05-05 20:32 | 52.29900 | -0.90372 | 26407 ft | 377 kts | 316° |
| 2026-05-05 20:33 | 52.32128 | -0.92589 | 26807 ft | 379 kts | 316° |
| 2026-05-05 20:33 | 52.34388 | -0.94840 | 27203 ft | 380 kts | 316° |
| 2026-05-05 20:33 | 52.36630 | -0.97076 | 27580 ft | 382 kts | 316° |
| 2026-05-05 20:33 | 52.38916 | -0.99360 | 27934 ft | 384 kts | 316° |
| 2026-05-05 20:34 | 52.41175 | -1.01620 | 28264 ft | 387 kts | 315° |
| 2026-05-05 20:34 | 52.43459 | -1.03907 | 28584 ft | 389 kts | 315° |
| 2026-05-05 20:34 | 52.45791 | -1.06160 | 28896 ft | 398 kts | 320° |
| 2026-05-05 20:34 | 52.48427 | -1.07892 | 29193 ft | 420 kts | 331° |
| 2026-05-05 20:35 | 52.51321 | -1.08768 | 29473 ft | 443 kts | 343° |
| 2026-05-05 20:35 | 52.54456 | -1.08754 | 29786 ft | 458 kts | 349° |
| 2026-05-05 20:35 | 52.57629 | -1.08497 | 30081 ft | 461 kts | 350° |
| 2026-05-05 20:35 | 52.60827 | -1.08235 | 30373 ft | 462 kts | 349° |
| 2026-05-05 20:36 | 52.64028 | -1.07982 | 30654 ft | 464 kts | 349° |
| 2026-05-05 20:36 | 52.67255 | -1.07733 | 30926 ft | 466 kts | 349° |
| 2026-05-05 20:36 | 52.70501 | -1.07485 | 31198 ft | 468 kts | 349° |
| 2026-05-05 20:36 | 52.73738 | -1.07408 | 31459 ft | 460 kts | 343° |
| 2026-05-05 20:37 | 52.76829 | -1.08027 | 31701 ft | 447 kts | 335° |
| 2026-05-05 20:37 | 52.79877 | -1.08951 | 31939 ft | 449 kts | 335° |
| 2026-05-05 20:37 | 52.82947 | -1.09889 | 32175 ft | 451 kts | 335° |
| 2026-05-05 20:37 | 52.86026 | -1.10829 | 32402 ft | 452 kts | 335° |
| 2026-05-05 20:38 | 52.89119 | -1.11773 | 32619 ft | 454 kts | 335° |
| 2026-05-05 20:38 | 52.92191 | -1.12710 | 32826 ft | 456 kts | 335° |
| 2026-05-05 20:38 | 52.95315 | -1.13662 | 33114 ft | 456 kts | 335° |
| 2026-05-05 20:38 | 52.98428 | -1.14611 | 33405 ft | 456 kts | 335° |
| 2026-05-05 20:39 | 53.01550 | -1.15567 | 33620 ft | 457 kts | 335° |
| 2026-05-05 20:39 | 53.04671 | -1.16525 | 33819 ft | 459 kts | 335° |
| 2026-05-05 20:39 | 53.07807 | -1.17489 | 34025 ft | 460 kts | 335° |
| 2026-05-05 20:39 | 53.10916 | -1.18444 | 34233 ft | 461 kts | 335° |
| 2026-05-05 20:40 | 53.14056 | -1.19410 | 34429 ft | 462 kts | 335° |
| 2026-05-05 20:40 | 53.17219 | -1.20384 | 34662 ft | 462 kts | 335° |
| 2026-05-05 20:40 | 53.20314 | -1.21338 | 34919 ft | 461 kts | 335° |
| 2026-05-05 20:40 | 53.23483 | -1.22317 | 35174 ft | 461 kts | 335° |
| 2026-05-05 20:41 | 53.26613 | -1.23286 | 35413 ft | 460 kts | 335° |
| 2026-05-05 20:41 | 53.29754 | -1.24260 | 35645 ft | 460 kts | 335° |
| 2026-05-05 20:41 | 53.32848 | -1.25221 | 35869 ft | 459 kts | 335° |
| 2026-05-05 20:41 | 53.35984 | -1.26197 | 36093 ft | 459 kts | 335° |
| 2026-05-05 20:42 | 53.39104 | -1.27169 | 36308 ft | 458 kts | 335° |
| 2026-05-05 20:42 | 53.42257 | -1.28003 | 36511 ft | 466 kts | 340° |
| 2026-05-05 20:42 | 53.45538 | -1.28478 | 36698 ft | 472 kts | 342° |
| 2026-05-05 20:42 | 53.48785 | -1.28867 | 36884 ft | 471 kts | 342° |
| 2026-05-05 20:43 | 53.52065 | -1.29265 | 37067 ft | 471 kts | 342° |
| 2026-05-05 20:43 | 53.55307 | -1.29717 | 37244 ft | 465 kts | 338° |
| 2026-05-05 20:43 | 53.58393 | -1.30808 | 37399 ft | 446 kts | 328° |
| 2026-05-05 20:43 | 53.61174 | -1.32667 | 37539 ft | 427 kts | 319° |
| 2026-05-05 20:44 | 53.63710 | -1.35111 | 37689 ft | 418 kts | 315° |
| 2026-05-05 20:44 | 53.66185 | -1.37629 | 37845 ft | 418 kts | 315° |
| 2026-05-05 20:44 | 53.68665 | -1.40152 | 37990 ft | 418 kts | 315° |
| 2026-05-05 20:44 | 53.71151 | -1.42681 | 38103 ft | 419 kts | 315° |
| 2026-05-05 20:45 | 53.76130 | -1.47751 | 38131 ft | 418 kts | 315° |
| 2026-05-05 20:45 | 53.81113 | -1.52837 | 38131 ft | 418 kts | 315° |
| 2026-05-05 20:46 | 53.86074 | -1.57914 | 38133 ft | 418 kts | 315° |
| 2026-05-05 20:46 | 53.91028 | -1.62999 | 38133 ft | 419 kts | 315° |
| 2026-05-05 20:47 | 53.96021 | -1.68136 | 38138 ft | 419 kts | 314° |
| 2026-05-05 20:47 | 54.01176 | -1.72993 | 38150 ft | 437 kts | 324° |
| 2026-05-05 20:48 | 54.04122 | -1.74553 | 38154 ft | 458 kts | 334° |
| 2026-05-05 20:48 | 54.07336 | -1.75345 | 38159 ft | 471 kts | 340° |
| 2026-05-05 20:48 | 54.13708 | -1.76474 | 38168 ft | 470 kts | 340° |
| 2026-05-05 20:49 | 54.20184 | -1.77644 | 38163 ft | 469 kts | 340° |
| 2026-05-05 20:49 | 54.26664 | -1.78832 | 38151 ft | 468 kts | 340° |
| 2026-05-05 20:50 | 54.33095 | -1.80017 | 38138 ft | 467 kts | 340° |
| 2026-05-05 20:50 | 54.39519 | -1.81206 | 38137 ft | 466 kts | 340° |
| 2026-05-05 20:51 | 54.45958 | -1.82401 | 38137 ft | 466 kts | 340° |
| 2026-05-05 20:51 | 54.52380 | -1.83597 | 38139 ft | 466 kts | 340° |
| 2026-05-05 20:52 | 54.58800 | -1.84797 | 38143 ft | 466 kts | 340° |
| 2026-05-05 20:52 | 54.65212 | -1.85999 | 38151 ft | 466 kts | 340° |
| 2026-05-05 20:53 | 54.71619 | -1.87203 | 38163 ft | 466 kts | 340° |
| 2026-05-05 20:53 | 54.78034 | -1.88413 | 38169 ft | 466 kts | 340° |
| 2026-05-05 20:54 | 54.84493 | -1.89635 | 38174 ft | 466 kts | 340° |
| 2026-05-05 20:54 | 54.90900 | -1.90850 | 38155 ft | 465 kts | 340° |
| 2026-05-05 20:55 | 54.94125 | -1.91460 | 37870 ft | 462 kts | 340° |
| 2026-05-05 20:55 | 54.97305 | -1.92065 | 37324 ft | 462 kts | 341° |
| 2026-05-05 20:55 | 55.00495 | -1.92675 | 36727 ft | 462 kts | 341° |
| 2026-05-05 20:55 | 55.03656 | -1.93280 | 36160 ft | 462 kts | 342° |
| 2026-05-05 20:56 | 55.06831 | -1.93886 | 35716 ft | 458 kts | 342° |
| 2026-05-05 20:56 | 55.09985 | -1.94478 | 35309 ft | 456 kts | 343° |
| 2026-05-05 20:56 | 55.13180 | -1.94559 | 34871 ft | 467 kts | 353° |
| 2026-05-05 20:56 | 55.16457 | -1.93815 | 34410 ft | 471 kts | 358° |
| 2026-05-05 20:57 | 55.19627 | -1.92955 | 33963 ft | 468 kts | 358° |
| 2026-05-05 20:57 | 55.22847 | -1.92079 | 33518 ft | 465 kts | 358° |
| 2026-05-05 20:57 | 55.26022 | -1.91220 | 33078 ft | 461 kts | 358° |
| 2026-05-05 20:57 | 55.29184 | -1.90366 | 32639 ft | 457 kts | 358° |
| 2026-05-05 20:58 | 55.32290 | -1.89529 | 32202 ft | 454 kts | 358° |
| 2026-05-05 20:58 | 55.35372 | -1.88697 | 31768 ft | 450 kts | 358° |
| 2026-05-05 20:58 | 55.38481 | -1.87858 | 31329 ft | 447 kts | 358° |
| 2026-05-05 20:58 | 55.41523 | -1.87035 | 30892 ft | 443 kts | 358° |
| 2026-05-05 20:59 | 55.44560 | -1.86213 | 30453 ft | 440 kts | 358° |
| 2026-05-05 20:59 | 55.47587 | -1.85392 | 30015 ft | 437 kts | 358° |
| 2026-05-05 20:59 | 55.50540 | -1.84590 | 29585 ft | 433 kts | 358° |
| 2026-05-05 20:59 | 55.53526 | -1.83778 | 29149 ft | 430 kts | 358° |
| 2026-05-05 21:00 | 55.56443 | -1.82984 | 28715 ft | 427 kts | 358° |
| 2026-05-05 21:00 | 55.59378 | -1.82183 | 28282 ft | 424 kts | 359° |
| 2026-05-05 21:00 | 55.62268 | -1.81393 | 27853 ft | 420 kts | 359° |
| 2026-05-05 21:00 | 55.65140 | -1.80608 | 27422 ft | 417 kts | 359° |
| 2026-05-05 21:01 | 55.67995 | -1.79825 | 26989 ft | 414 kts | 359° |
| 2026-05-05 21:01 | 55.70828 | -1.79048 | 26561 ft | 411 kts | 359° |
| 2026-05-05 21:01 | 55.73618 | -1.78281 | 26136 ft | 408 kts | 359° |
| 2026-05-05 21:01 | 55.76431 | -1.77507 | 25705 ft | 405 kts | 359° |
| 2026-05-05 21:02 | 55.79185 | -1.76748 | 25280 ft | 402 kts | 359° |
| 2026-05-05 21:02 | 55.81946 | -1.75986 | 24853 ft | 399 kts | 359° |
| 2026-05-05 21:02 | 55.84691 | -1.75227 | 24428 ft | 396 kts | 359° |
| 2026-05-05 21:02 | 55.87397 | -1.74478 | 24007 ft | 393 kts | 359° |
| 2026-05-05 21:03 | 55.90060 | -1.73764 | 23585 ft | 387 kts | 356° |
| 2026-05-05 21:03 | 55.92688 | -1.73902 | 23135 ft | 366 kts | 339° |
| 2026-05-05 21:03 | 55.95146 | -1.74791 | 22726 ft | 361 kts | 338° |
| 2026-05-05 21:03 | 55.97579 | -1.75691 | 22291 ft | 359 kts | 338° |
| 2026-05-05 21:04 | 56.00039 | -1.76602 | 21851 ft | 357 kts | 338° |
| 2026-05-05 21:04 | 56.02470 | -1.77501 | 21418 ft | 355 kts | 339° |
| 2026-05-05 21:04 | 56.04858 | -1.78385 | 20995 ft | 352 kts | 339° |
| 2026-05-05 21:04 | 56.07227 | -1.79263 | 20575 ft | 350 kts | 339° |
| 2026-05-05 21:05 | 56.09631 | -1.80155 | 20145 ft | 348 kts | 339° |
| 2026-05-05 21:05 | 56.11985 | -1.81028 | 19718 ft | 345 kts | 339° |
| 2026-05-05 21:05 | 56.14323 | -1.81897 | 19297 ft | 343 kts | 339° |
| 2026-05-05 21:05 | 56.16646 | -1.82762 | 18871 ft | 341 kts | 339° |
| 2026-05-05 21:06 | 56.18964 | -1.83625 | 18445 ft | 338 kts | 340° |
| 2026-05-05 21:06 | 56.21257 | -1.84481 | 18026 ft | 336 kts | 340° |
| 2026-05-05 21:06 | 56.23531 | -1.85330 | 17610 ft | 334 kts | 340° |
| 2026-05-05 21:06 | 56.25804 | -1.86180 | 17194 ft | 332 kts | 340° |
| 2026-05-05 21:07 | 56.28058 | -1.87024 | 16781 ft | 329 kts | 340° |
| 2026-05-05 21:07 | 56.30277 | -1.87856 | 16375 ft | 327 kts | 340° |
| 2026-05-05 21:07 | 56.32475 | -1.88682 | 15973 ft | 325 kts | 340° |
| 2026-05-05 21:07 | 56.34685 | -1.89513 | 15566 ft | 323 kts | 341° |
| 2026-05-05 21:08 | 56.36876 | -1.90338 | 15159 ft | 321 kts | 341° |
| 2026-05-05 21:08 | 56.39036 | -1.91152 | 14757 ft | 319 kts | 341° |
| 2026-05-05 21:08 | 56.41206 | -1.91971 | 14354 ft | 317 kts | 341° |
| 2026-05-05 21:08 | 56.43366 | -1.92786 | 13952 ft | 315 kts | 342° |
| 2026-05-05 21:09 | 56.45541 | -1.93232 | 13556 ft | 319 kts | 353° |
| 2026-05-05 21:09 | 56.47751 | -1.93226 | 13165 ft | 317 kts | 352° |
| 2026-05-05 21:09 | 56.49967 | -1.93371 | 12778 ft | 314 kts | 351° |
| 2026-05-05 21:09 | 56.52120 | -1.93547 | 12397 ft | 312 kts | 351° |
| 2026-05-05 21:10 | 56.54282 | -1.93731 | 12013 ft | 310 kts | 351° |
| 2026-05-05 21:10 | 56.56428 | -1.93920 | 11641 ft | 308 kts | 351° |
| 2026-05-05 21:10 | 56.58558 | -1.94110 | 11294 ft | 304 kts | 352° |
| 2026-05-05 21:10 | 56.60681 | -1.94300 | 10941 ft | 301 kts | 352° |
| 2026-05-05 21:11 | 56.62739 | -1.94488 | 10591 ft | 299 kts | 352° |
| 2026-05-05 21:11 | 56.64801 | -1.94681 | 10330 ft | 292 kts | 352° |
| 2026-05-05 21:11 | 56.66802 | -1.94866 | 10087 ft | 287 kts | 352° |
| 2026-05-05 21:11 | 56.68779 | -1.95051 | 9770 ft | 284 kts | 352° |
| 2026-05-05 21:12 | 56.70743 | -1.95241 | 9439 ft | 281 kts | 352° |
| 2026-05-05 21:12 | 56.72681 | -1.95436 | 9109 ft | 279 kts | 352° |
| 2026-05-05 21:12 | 56.74646 | -1.95642 | 8773 ft | 277 kts | 352° |
| 2026-05-05 21:12 | 56.76535 | -1.95850 | 8447 ft | 275 kts | 352° |
| 2026-05-05 21:13 | 56.78450 | -1.96069 | 8117 ft | 273 kts | 352° |
| 2026-05-05 21:13 | 56.80334 | -1.96294 | 7789 ft | 271 kts | 352° |
| 2026-05-05 21:13 | 56.82201 | -1.96527 | 7464 ft | 269 kts | 352° |
| 2026-05-05 21:13 | 56.84050 | -1.96768 | 7139 ft | 267 kts | 352° |
| 2026-05-05 21:14 | 56.85903 | -1.97020 | 6812 ft | 265 kts | 352° |
| 2026-05-05 21:14 | 56.87724 | -1.97279 | 6489 ft | 263 kts | 351° |
| 2026-05-05 21:14 | 56.89521 | -1.97869 | 6162 ft | 259 kts | 345° |
| 2026-05-05 21:14 | 56.91262 | -1.98590 | 5837 ft | 257 kts | 340° |
| 2026-05-05 21:15 | 56.92959 | -1.99666 | 5508 ft | 254 kts | 335° |
| 2026-05-05 21:15 | 56.94583 | -2.00885 | 5188 ft | 253 kts | 335° |
| 2026-05-05 21:15 | 56.96221 | -2.02095 | 4861 ft | 252 kts | 336° |
| 2026-05-05 21:15 | 56.97850 | -2.03287 | 4547 ft | 251 kts | 336° |
| 2026-05-05 21:16 | 56.99446 | -2.04455 | 4318 ft | 246 kts | 336° |
| 2026-05-05 21:16 | 57.01021 | -2.05615 | 4054 ft | 242 kts | 336° |
| 2026-05-05 21:16 | 57.02527 | -2.06728 | 3792 ft | 230 kts | 336° |
| 2026-05-05 21:16 | 57.03988 | -2.07808 | 3520 ft | 221 kts | 336° |
| 2026-05-05 21:17 | 57.05382 | -2.08840 | 3218 ft | 215 kts | 337° |
| 2026-05-05 21:17 | 57.06746 | -2.09850 | 2888 ft | 206 kts | 337° |
| 2026-05-05 21:17 | 57.08032 | -2.10799 | 2601 ft | 196 kts | 337° |
| 2026-05-05 21:17 | 57.09254 | -2.11700 | 2396 ft | 180 kts | 337° |
| 2026-05-05 21:18 | 57.10350 | -2.12506 | 2196 ft | 162 kts | 337° |
| 2026-05-05 21:18 | 57.11375 | -2.13262 | 1959 ft | 157 kts | 337° |
| 2026-05-05 21:18 | 57.12386 | -2.14017 | 1732 ft | 156 kts | 337° |
| 2026-05-05 21:18 | 57.13390 | -2.14759 | 1534 ft | 156 kts | 338° |
| 2026-05-05 21:19 | 57.14359 | -2.15473 | 1350 ft | 143 kts | 338° |
| 2026-05-05 21:19 | 57.15237 | -2.16108 | 1164 ft | 130 kts | 338° |
| 2026-05-05 21:19 | 57.16069 | -2.16725 | 994 ft | 129 kts | 336° |
| 2026-05-05 21:19 | 57.16895 | -2.17338 | 843 ft | 129 kts | 338° |
| 2026-05-05 21:20 | 57.17738 | -2.17957 | 650 ft | 129 kts | 338° |
| 2026-05-05 21:20 | 57.18560 | -2.18572 | 473 ft | 128 kts | 338° |
| 2026-05-05 21:20 | 57.19391 | -2.19185 | 302 ft | 128 kts | 337° |
| 2026-05-05 21:20 | 57.20186 | -2.19772 | 208 ft | 107 kts | 338° |
| 2026-05-05 21:21 | 57.20604 | -2.20083 | 206 ft | 32 kts | 337° |
| 2026-05-05 21:21 | 57.20795 | -2.20227 | 206 ft | 18 kts | 336° |
| 2026-05-05 21:21 | 57.20905 | -2.20309 | 208 ft | 11 kts | 334° |
| 2026-05-05 21:21 | 57.20927 | -2.20365 | 211 ft | 3 kts | 275° |
| 2026-05-05 21:22 | 57.20921 | -2.20408 | 212 ft | 4 kts | 243° |
| 2026-05-05 21:22 | 57.20887 | -2.20477 | 217 ft | 10 kts | 218° |
| 2026-05-05 21:22 | 57.20804 | -2.20547 | 223 ft | 13 kts | 186° |
| 2026-05-05 21:22 | 57.20716 | -2.20494 | 221 ft | 15 kts | 158° |
| 2026-05-05 21:23 | 57.20607 | -2.20411 | 218 ft | 18 kts | 158° |
| 2026-05-05 21:23 | 57.20481 | -2.20361 | 217 ft | 12 kts | 214° |
| 2026-05-05 21:23 | 57.20407 | -2.20379 | 220 ft | 11 kts | 159° |
| 2026-05-05 21:23 | 57.20323 | -2.20316 | 219 ft | 14 kts | 158° |
| 2026-05-05 21:24 | 57.20232 | -2.20246 | 218 ft | 13 kts | 158° |
| 2026-05-05 21:24 | 57.20155 | -2.20231 | 219 ft | 8 kts | 214° |
| 2026-05-05 21:24 | 57.20141 | -2.20271 | 221 ft | 0 kts | 248° |
| 2026-05-05 21:24 | 57.20140 | -2.20277 | 221 ft | 1 kts | 248° |
| 2026-05-05 21:25 | 57.20134 | -2.20307 | 222 ft | 0 kts | 249° |